Time;durP1;ratioP1;P1;durP2;ratioP2;P2;SDS_P1;SDS_P2;PMS_P1;PMS_P2;Temp;Humidity;BMP_temperature;BMP_pressure;BME280_temperature;BME280_humidity;BME280_pressure;Samples;Min_cycle;Max_cycle;Signal;HPM_P1;HPM_P2
2022/05/27 00:00:20;;;;;;;3.33;2.00;;;;;;;15.34;100.00;98768.09;4356604;32;20866;-76
2022/05/27 00:03:02;;;;;;;8.10;2.83;;;;;;;15.50;100.00;98783.09;4341302;33;20041;-75
2022/05/27 00:05:28;;;;;;;7.20;2.30;;;;;;;15.47;100.00;98775.53;4342223;32;20055;-76
2022/05/27 00:07:55;;;;;;;5.05;1.98;;;;;;;15.42;100.00;98770.16;4356611;32;20036;-75
2022/05/27 00:10:21;;;;;;;3.12;2.90;;;;;;;15.43;100.00;98769.06;4355201;32;20029;-76
2022/05/27 00:12:47;;;;;;;5.82;2.00;;;;;;;15.18;100.00;98760.09;4342572;32;20059;-76
2022/05/27 00:15:14;;;;;;;4.55;1.73;;;;;;;15.23;100.00;98757.31;4341142;33;20036;-76
2022/05/27 00:17:40;;;;;;;2.47;2.08;;;;;;;15.38;100.00;98769.09;4339952;33;20028;-76
2022/05/27 00:20:08;;;;;;;3.58;2.17;;;;;;;15.32;100.00;98760.22;4353063;32;20039;-75
2022/05/27 00:22:35;;;;;;;4.45;2.42;;;;;;;15.37;100.00;98751.22;4340733;33;20024;-76
2022/05/27 00:25:02;;;;;;;7.15;2.78;;;;;;;15.42;100.00;98759.31;4352059;33;20028;-76
2022/05/27 00:27:29;;;;;;;4.00;2.10;;;;;;;15.35;100.00;98747.97;4355634;32;20052;-75
2022/05/27 00:29:56;;;;;;;3.70;2.00;;;;;;;15.25;100.00;98738.06;4341440;33;20202;-76
2022/05/27 00:32:22;;;;;;;4.65;2.47;;;;;;;15.21;100.00;98743.25;4356067;32;20043;-75
2022/05/27 00:34:48;;;;;;;4.87;2.50;;;;;;;15.23;100.00;98738.34;4340279;32;20066;-76
2022/05/27 00:37:21;;;;;;;7.07;2.50;;;;;;;15.19;100.00;98729.19;4340183;33;20062;-76
2022/05/27 00:39:48;;;;;;;6.03;2.65;;;;;;;15.20;100.00;98725.34;4344432;33;20065;-76
2022/05/27 00:42:14;;;;;;;3.95;2.12;;;;;;;14.87;100.00;98689.09;4354158;32;20051;-77
2022/05/27 00:44:41;;;;;;;5.55;2.15;;;;;;;14.88;100.00;98691.50;4356637;32;20043;-76
2022/05/27 00:47:12;;;;;;;4.97;2.08;;;;;;;14.79;100.00;98692.41;4356188;32;20444;-76
2022/05/27 00:49:45;;;;;;;5.45;1.98;;;;;;;15.10;100.00;98711.13;4356211;32;20077;-76
2022/05/27 00:52:16;;;;;;;3.78;2.85;;;;;;;14.97;100.00;98682.78;4341701;32;20040;-76
2022/05/27 00:54:43;;;;;;;4.57;2.50;;;;;;;14.82;100.00;98643.91;4339533;33;20058;-76
2022/05/27 00:57:16;;;;;;;3.78;1.87;;;;;;;15.00;100.00;98698.47;4340058;33;20059;-77
2022/05/27 00:59:48;;;;;;;4.00;2.53;;;;;;;15.14;100.00;98704.00;4340416;33;20411;-75
2022/05/27 01:02:14;;;;;;;6.15;2.10;;;;;;;15.19;100.00;98699.34;4338784;32;20080;-75
2022/05/27 01:04:41;;;;;;;6.15;1.80;;;;;;;15.04;100.00;98704.91;4341262;33;20340;-75
2022/05/27 01:07:08;;;;;;;12.45;2.75;;;;;;;15.05;100.00;98699.22;4341207;33;20040;-75
2022/05/27 01:09:38;;;;;;;5.00;2.60;;;;;;;15.17;100.00;98688.00;4341609;33;20062;-75
2022/05/27 01:12:32;;;;;;;3.80;2.22;;;;;;;15.08;100.00;98687.78;4339471;33;20054;-75
2022/05/27 01:15:23;;;;;;;8.02;2.37;;;;;;;15.21;100.00;98678.16;4352589;32;20052;-76
2022/05/27 01:17:58;;;;;;;11.82;2.50;;;;;;;15.21;100.00;98678.16;4354715;32;20058;-76
2022/05/27 01:20:34;;;;;;;3.05;2.28;;;;;;;15.08;100.00;98668.03;4354436;32;20105;-75
2022/05/27 01:23:18;;;;;;;6.60;3.58;;;;;;;14.68;100.00;98632.13;4355915;32;20036;-74
2022/05/27 01:25:51;;;;;;;6.10;3.22;;;;;;;14.81;100.00;98672.09;4356221;32;20089;-75
2022/05/27 01:28:26;;;;;;;5.05;2.62;;;;;;;14.78;100.00;98637.41;4342951;32;20035;-76
2022/05/27 01:31:11;;;;;;;6.75;2.58;;;;;;;14.82;100.00;98664.75;4355898;32;20039;-77
2022/05/27 01:33:50;;;;;;;3.00;2.40;;;;;;;15.04;100.00;98666.97;4355586;32;20385;-76
2022/05/27 01:36:40;;;;;;;4.60;3.15;;;;;;;14.94;100.00;98661.66;4351241;32;20048;-75
2022/05/27 01:39:23;;;;;;;2.30;1.90;;;;;;;14.91;100.00;98664.94;4355517;32;20059;-75
2022/05/27 01:42:10;;;;;;;3.72;2.55;;;;;;;14.62;100.00;98612.38;4355842;32;20049;-76
2022/05/27 01:44:53;;;;;;;3.53;2.78;;;;;;;14.62;100.00;98641.38;4342603;32;20035;-77
2022/05/27 01:48:01;;;;;;;4.85;2.60;;;;;;;14.72;100.00;98641.28;4355441;32;20066;-76
2022/05/27 01:50:39;;;;;;;2.55;2.35;;;;;;;14.95;100.00;98663.25;4350281;32;20082;-76
2022/05/27 01:53:23;;;;;;;4.90;2.47;;;;;;;14.84;100.00;98660.66;4339498;33;20424;-76
2022/05/27 01:56:08;;;;;;;2.90;2.42;;;;;;;14.66;100.00;98628.87;4355658;32;20044;-76
2022/05/27 01:58:40;;;;;;;4.60;2.33;;;;;;;14.86;100.00;98644.91;4355520;32;20414;-76
2022/05/27 02:01:09;;;;;;;;;;;;;;;14.69;100.00;98655.41;4355503;32;20044;-76
2022/05/27 02:03:42;;;;;;;4.45;2.30;;;;;;;14.75;100.00;98648.84;4355380;32;19942;-76
2022/05/27 02:06:11;;;;;;;5.10;2.95;;;;;;;14.85;100.00;98640.62;4354935;32;20418;-76
2022/05/27 02:09:24;;;;;;;5.28;2.62;;;;;;;14.43;100.00;98614.97;4354784;32;20474;-76
2022/05/27 02:11:58;;;;;;;6.53;2.20;;;;;;;14.79;100.00;98649.06;4332094;33;20040;-75
2022/05/27 02:14:38;;;;;;;4.80;2.75;;;;;;;14.69;100.00;98649.97;4339150;33;20049;-76
2022/05/27 02:17:10;;;;;;;11.82;3.17;;;;;;;14.64;100.00;98620.22;4351993;32;20035;-76
2022/05/27 02:19:44;;;;;;;4.18;2.90;;;;;;;14.56;100.00;98607.28;4355380;32;20106;-76
2022/05/27 02:22:23;;;;;;;5.53;2.37;;;;;;;14.69;100.00;98629.13;4340590;33;20028;-76
2022/05/27 02:24:56;;;;;;;7.90;3.78;;;;;;;14.82;100.00;98633.06;4354118;33;20044;-76
2022/05/27 02:27:31;;;;;;;5.80;2.53;;;;;;;14.74;100.00;98630.16;4355539;33;20080;-76
2022/05/27 02:30:01;;;;;;;9.00;2.53;;;;;;;14.63;100.00;98591.50;4354354;33;20187;-76
2022/05/27 02:32:34;;;;;;;8.25;2.47;;;;;;;14.73;100.00;98623.94;4342833;32;20083;-76
2022/05/27 02:35:11;;;;;;;4.68;2.45;;;;;;;14.85;100.00;98616.22;4356788;32;20065;-76
2022/05/27 02:37:41;;;;;;;2.55;2.35;;;;;;;14.80;100.00;98629.81;4342103;33;20431;-76
2022/05/27 02:40:19;;;;;;;6.93;2.50;;;;;;;14.77;100.00;98641.22;4343549;32;20066;-76
2022/05/27 02:43:04;;;;;;;7.37;2.75;;;;;;;14.70;100.00;98619.09;4343648;33;20343;-77
2022/05/27 02:45:49;;;;;;;4.35;2.58;;;;;;;14.94;100.00;98623.72;4343850;33;20060;-76
2022/05/27 02:48:30;;;;;;;4.72;2.08;;;;;;;14.81;100.00;98581.84;4347021;33;20097;-75
2022/05/27 02:51:06;;;;;;;2.92;2.65;;;;;;;14.67;100.00;98576.31;4357052;32;20165;-75
2022/05/27 02:54:11;;;;;;;3.92;2.65;;;;;;;14.78;100.00;98604.91;4357548;32;20032;-75
2022/05/27 02:56:51;;;;;;;6.15;2.58;;;;;;;14.78;100.00;98599.47;4357963;32;20086;-75
2022/05/27 02:59:19;;;;;;;5.80;2.70;;;;;;;14.63;100.00;98548.97;4356670;32;20154;-75
2022/05/27 03:01:47;;;;;;;3.60;2.45;;;;;;;14.56;100.00;98561.22;4356075;32;20113;-77
2022/05/27 03:04:18;;;;;;;5.25;2.70;;;;;;;14.78;100.00;98585.13;4344260;33;20979;-76
2022/05/27 03:07:14;;;;;;;5.10;2.95;;;;;;;14.82;100.00;98586.97;4358088;32;20209;-75
2022/05/27 03:09:49;;;;;;;3.95;2.67;;;;;;;14.72;100.00;98578.94;4303614;32;20389;-74
2022/05/27 03:12:35;;;;;;;2.22;2.03;;;;;;;14.69;100.00;98561.37;4357304;32;20075;-74
2022/05/27 03:15:16;;;;;;;5.20;2.35;;;;;;;14.74;100.00;98563.19;4356261;32;20047;-76
2022/05/27 03:18:11;;;;;;;4.75;2.17;;;;;;;14.79;100.00;98552.31;4357157;32;20028;-77
2022/05/27 03:20:47;;;;;;;2.95;2.75;;;;;;;14.78;100.00;98561.53;4354050;32;20048;-76
2022/05/27 03:23:53;;;;;;;4.22;2.30;;;;;;;15.01;100.00;98549.06;4357745;32;20065;-77
2022/05/27 03:26:40;;;;;;;3.35;2.60;;;;;;;14.83;100.00;98553.34;4358170;32;20081;-75
2022/05/27 03:29:20;;;;;;;4.35;2.28;;;;;;;14.84;100.00;98541.41;4344689;32;20057;-75
2022/05/27 03:31:54;;;;;;;2.67;2.42;;;;;;;14.79;100.00;98541.47;4356613;32;20095;-76
2022/05/27 03:34:48;;;;;;;3.87;2.35;;;;;;;14.82;100.00;98540.09;4343237;33;20400;-76
2022/05/27 03:37:28;;;;;;;6.43;2.80;;;;;;;14.78;100.00;98550.69;4340814;33;20179;-75
2022/05/27 03:40:07;;;;;;;2.90;2.45;;;;;;;14.79;100.00;98541.47;4358206;32;20081;-75
2022/05/27 03:42:35;;;;;;;3.53;2.65;;;;;;;14.75;100.00;98534.22;4343603;32;20085;-75
2022/05/27 03:45:06;;;;;;;3.10;2.53;;;;;;;14.61;100.00;98507.00;4355215;32;20028;-76
2022/05/27 03:47:33;;;;;;;3.78;2.87;;;;;;;14.93;100.00;98541.56;4343900;32;20028;-76
2022/05/27 03:50:00;;;;;;;5.20;2.83;;;;;;;15.04;100.00;98534.12;4357372;32;20065;-77
2022/05/27 03:52:34;;;;;;;4.87;2.58;;;;;;;14.85;100.00;98534.09;4357309;32;20044;-75
2022/05/27 03:55:00;;;;;;;3.72;2.75;;;;;;;14.89;100.00;98529.72;4357299;32;20283;-75
2022/05/27 03:57:27;;;;;;;11.55;3.42;;;;;;;14.82;100.00;98540.91;4342899;33;20080;-74
2022/05/27 03:59:53;;;;;;;5.72;2.47;;;;;;;14.92;100.00;98544.56;4356160;32;20035;-76
2022/05/27 04:02:19;;;;;;;2.85;2.65;;;;;;;14.74;100.00;98538.81;4342354;33;20036;-76
2022/05/27 04:04:46;;;;;;;4.55;2.67;;;;;;;14.83;100.00;98537.09;4338367;32;20068;-76
2022/05/27 04:07:12;;;;;;;6.32;2.92;;;;;;;14.94;100.00;98536.97;4341384;33;20068;-75
2022/05/27 04:09:39;;;;;;;12.55;2.87;;;;;;;14.85;100.00;98532.19;4349520;32;20081;-76
2022/05/27 04:12:06;;;;;;;8.27;3.35;;;;;;;14.96;100.00;98526.62;4342651;33;20039;-75
2022/05/27 04:14:32;;;;;;;3.15;2.83;;;;;;;14.82;100.00;98497.53;4328112;33;20044;-76
2022/05/27 04:19:45;;;;;;;4.22;2.72;;;;;;;14.89;100.00;98503.41;4340399;33;20040;-76
2022/05/27 04:22:11;;;;;;;4.78;2.03;;;;;;;14.77;100.00;98489.47;4353876;32;20074;-76
2022/05/27 04:24:37;;;;;;;5.18;2.85;;;;;;;14.69;100.00;98493.63;4356228;32;20163;-76
2022/05/27 04:27:14;;;;;;;7.62;2.85;;;;;;;14.80;100.00;98532.25;4342596;32;20374;-76
2022/05/27 04:29:43;;;;;;;3.78;2.67;;;;;;;14.84;100.00;98498.06;4356731;32;20039;-75
2022/05/27 04:32:10;;;;;;;3.08;2.37;;;;;;;15.03;100.00;98508.09;4356445;32;20032;-76
2022/05/27 04:34:37;;;;;;;3.87;2.72;;;;;;;15.07;100.00;98514.56;4356380;32;20198;-75
2022/05/27 04:37:03;;;;;;;2.62;2.30;;;;;;;14.93;100.00;98514.47;4353496;32;20035;-75
2022/05/27 04:39:30;;;;;;;2.92;2.72;;;;;;;14.87;100.00;98511.03;4355803;32;20214;-74
2022/05/27 04:41:57;;;;;;;8.45;2.83;;;;;;;14.94;100.00;98515.28;4356752;32;20113;-75
2022/05/27 04:44:23;;;;;;;8.85;2.75;;;;;;;14.92;100.00;98510.16;4356428;32;20051;-77
2022/05/27 04:46:50;;;;;;;4.05;2.40;;;;;;;14.86;100.00;98520.25;4356428;32;20166;-76
2022/05/27 04:52:03;;;;;;;6.90;3.30;;;;;;;14.79;100.00;98514.37;4357668;32;20056;-75
2022/05/27 04:54:29;;;;;;;4.45;2.60;;;;;;;14.67;100.00;98516.69;4370442;32;20517;-73
2022/05/27 04:56:56;;;;;;;13.05;2.95;;;;;;;14.49;100.00;98472.19;4355979;32;20057;-75
2022/05/27 04:59:24;;;;;;;6.03;2.28;;;;;;;14.62;100.00;98478.81;4361932;32;20048;-75
2022/05/27 05:01:51;;;;;;;10.23;3.00;;;;;;;14.59;100.00;98509.97;4357302;32;20479;-73
2022/05/27 05:04:17;;;;;;;7.90;2.70;;;;;;;14.53;100.00;98495.69;4354846;32;20102;-76
2022/05/27 05:06:45;;;;;;;3.55;2.67;;;;;;;14.54;100.00;98508.13;4355293;33;20065;-76
2022/05/27 05:09:11;;;;;;;6.07;3.00;;;;;;;14.40;100.00;98511.81;4353662;32;20069;-75
2022/05/27 05:11:38;;;;;;;5.37;3.08;;;;;;;14.59;100.00;98517.31;4354624;32;20059;-75
2022/05/27 05:14:04;;;;;;;5.93;3.17;;;;;;;14.26;100.00;98484.59;4367985;32;20402;-75
2022/05/27 05:16:31;;;;;;;10.98;3.28;;;;;;;14.26;100.00;98512.47;4352589;32;20448;-75
2022/05/27 05:18:57;;;;;;;4.00;2.33;;;;;;;14.08;100.00;98499.69;4370402;32;20364;-76
2022/05/27 05:21:24;;;;;;;4.07;3.62;;;;;;;13.98;100.00;98500.59;4366551;32;20091;-76
2022/05/27 05:23:51;;;;;;;4.35;3.62;;;;;;;13.76;100.00;98472.09;4362251;32;20052;-75
2022/05/27 05:26:17;;;;;;;7.03;3.42;;;;;;;13.86;100.00;98482.00;4339012;32;20097;-75
2022/05/27 05:28:44;;;;;;;4.85;3.45;;;;;;;14.15;100.00;98506.38;4352205;33;20347;-75
2022/05/27 05:31:16;;;;;;;6.00;3.28;;;;;;;13.87;100.00;98477.44;4353884;32;20044;-75
2022/05/27 05:33:43;;;;;;;11.65;3.00;;;;;;;14.03;100.00;98508.66;4357176;32;20036;-75
2022/05/27 05:36:10;;;;;;;3.03;2.15;;;;;;;13.76;100.00;98455.84;4366067;32;20074;-74
2022/05/27 05:38:37;;;;;;;4.60;3.42;;;;;;;13.78;100.00;98491.53;4369849;32;20075;-74
2022/05/27 05:41:05;;;;;;;7.95;3.08;;;;;;;14.01;100.00;98486.50;4355998;32;20435;-74
2022/05/27 05:43:33;;;;;;;4.97;2.80;;;;;;;14.04;100.00;98494.03;4340285;32;20054;-76
2022/05/27 05:46:00;;;;;;;7.00;3.75;;;;;;;13.73;100.00;98445.59;4355851;32;20079;-75
2022/05/27 05:48:26;;;;;;;5.28;3.45;;;;;;;14.06;100.00;98496.47;4354654;32;20028;-76
2022/05/27 05:50:52;;;;;;;5.70;3.90;;;;;;;14.03;100.00;98478.88;4340877;33;20043;-74
2022/05/27 05:53:19;;;;;;;7.40;3.50;;;;;;;14.13;100.00;98480.69;4345880;32;20036;-73
2022/05/27 05:55:46;;;;;;;8.25;3.58;;;;;;;14.28;100.00;98474.28;4352209;32;20380;-75
2022/05/27 05:58:12;;;;;;;7.53;3.25;;;;;;;14.23;100.00;98475.19;4354352;32;20069;-73
2022/05/27 06:00:39;;;;;;;6.68;2.78;;;;;;;14.34;100.00;98459.59;4349901;32;20115;-76
2022/05/27 06:03:05;;;;;;;4.75;2.97;;;;;;;14.28;100.00;98460.75;4339314;33;20052;-76
2022/05/27 06:05:32;;;;;;;7.18;2.87;;;;;;;14.06;100.00;98423.37;4338464;33;20077;-76
2022/05/27 06:07:58;;;;;;;3.75;2.75;;;;;;;14.10;100.00;98422.50;4336933;33;20091;-76
2022/05/27 06:10:25;;;;;;;3.60;2.60;;;;;;;14.51;100.00;98454.53;4337833;33;20078;-77
2022/05/27 06:12:51;;;;;;;4.82;3.45;;;;;;;14.49;100.00;98462.13;4339322;33;20386;-76
2022/05/27 06:15:17;;;;;;;4.18;2.72;;;;;;;14.20;100.00;98431.59;4339389;33;20039;-75
2022/05/27 06:17:44;;;;;;;3.53;2.50;;;;;;;14.58;100.00;98454.16;4339828;33;20111;-76
2022/05/27 06:20:11;;;;;;;2.83;2.55;;;;;;;14.49;100.00;98415.28;4337858;33;20538;-75
2022/05/27 06:22:38;;;;;;;4.85;3.00;;;;;;;14.42;100.00;98442.72;4340475;33;20074;-76
2022/05/27 06:25:05;;;;;;;7.55;3.15;;;;;;;14.61;100.00;98426.53;4339039;33;20048;-74
2022/05/27 06:27:33;;;;;;;5.25;2.80;;;;;;;14.54;100.00;98456.66;4326872;33;20032;-75
2022/05/27 06:35:32;;;;;;;3.67;2.42;;;;;;;14.38;100.00;98436.28;4340051;33;20044;-74
2022/05/27 06:37:59;;;;;;;3.10;2.22;;;;;;;14.79;100.00;98453.94;4337299;33;20393;-75
2022/05/27 06:40:25;;;;;;;5.10;2.58;;;;;;;14.71;100.00;98471.69;4340847;33;20052;-74
2022/05/27 06:42:51;;;;;;;3.60;2.33;;;;;;;14.53;100.00;98429.84;4339535;33;20152;-74
2022/05/27 06:45:18;;;;;;;7.18;2.42;;;;;;;14.85;100.00;98452.78;4340593;33;20070;-74
2022/05/27 06:47:44;;;;;;;2.10;2.00;;;;;;;14.68;100.00;98431.59;4326273;33;20087;-75
2022/05/27 06:50:11;;;;;;;2.30;1.77;;;;;;;14.80;100.00;98450.94;4325262;33;20029;-74
2022/05/27 06:52:40;;;;;;;6.85;2.50;;;;;;;14.82;100.00;98421.66;4339103;33;20381;-79
2022/05/27 06:55:12;;;;;;;4.82;1.92;;;;;;;14.99;100.00;98458.28;4340360;33;20080;-74
2022/05/27 06:57:39;;;;;;;5.30;2.12;;;;;;;14.74;100.00;98462.13;4339649;33;20048;-75
2022/05/27 07:00:09;;;;;;;4.05;2.28;;;;;;;14.51;100.00;98426.62;4337394;33;20045;-75
2022/05/27 07:02:35;;;;;;;2.75;2.05;;;;;;;14.81;100.00;98409.19;4340590;33;20106;-75
2022/05/27 07:05:02;;;;;;;3.85;1.90;;;;;;;14.80;100.00;98450.94;4325607;33;20361;-74
2022/05/27 07:07:30;;;;;;;4.07;2.53;;;;;;;14.67;100.00;98441.62;4339299;33;20381;-75
2022/05/27 07:09:56;;;;;;;2.85;2.65;;;;;;;14.73;100.00;98396.31;4337704;33;20093;-76
2022/05/27 07:12:23;;;;;;;2.80;2.30;;;;;;;14.69;100.00;98406.09;4346783;33;20076;-74
2022/05/27 07:14:50;;;;;;;4.80;3.10;;;;;;;14.70;100.00;98441.03;4346185;32;20361;-74
2022/05/27 07:17:16;;;;;;;4.57;2.08;;;;;;;14.82;100.00;98413.53;4357913;32;20553;-73
2022/05/27 07:19:43;;;;;;;12.40;2.58;;;;;;;14.75;100.00;98442.88;4358350;32;20050;-74
2022/05/27 07:22:10;;;;;;;4.72;2.30;;;;;;;14.75;100.00;98426.62;4370773;32;20036;-75
2022/05/27 07:24:38;;;;;;;8.07;2.35;;;;;;;15.05;100.00;98424.59;4359722;32;20098;-74
2022/05/27 07:27:05;;;;;;;6.95;3.65;;;;;;;14.88;100.00;98430.50;4358575;32;20040;-74
2022/05/27 07:29:32;;;;;;;2.33;2.12;;;;;;;14.95;100.00;98430.13;4359757;32;20049;-79
2022/05/27 07:31:58;;;;;;;5.37;2.25;;;;;;;14.49;100.00;98399.84;4343039;33;20102;-79
2022/05/27 07:34:25;;;;;;;3.97;2.70;;;;;;;14.77;100.00;98416.28;4346517;32;20057;-78
2022/05/27 07:36:51;;;;;;;3.87;2.47;;;;;;;14.86;100.00;98416.47;4365965;32;20769;-78
2022/05/27 07:39:18;;;;;;;6.10;2.67;;;;;;;14.58;100.00;98431.69;4348377;32;20050;-78
2022/05/27 07:41:44;;;;;;;4.78;2.28;;;;;;;14.58;100.00;98391.06;4342801;33;20052;-79
2022/05/27 07:44:11;;;;;;;2.80;2.60;;;;;;;14.68;100.00;98426.19;4342541;33;20040;-73
2022/05/27 07:46:37;;;;;;;4.65;2.90;;;;;;;14.64;100.00;98381.81;4339977;33;20087;-74
2022/05/27 07:49:07;;;;;;;3.95;3.25;;;;;;;14.40;100.00;98401.56;4341579;33;20056;-73
2022/05/27 07:51:33;;;;;;;2.92;2.53;;;;;;;14.35;100.00;98410.56;4342112;33;20058;-73
2022/05/27 07:54:00;;;;;;;5.43;2.50;;;;;;;14.04;100.00;98417.44;4341313;33;20385;-72
2022/05/27 07:56:26;;;;;;;4.35;2.70;;;;;;;13.90;100.00;98460.63;4341585;33;20476;-73
2022/05/27 07:58:52;;;;;;;12.02;3.20;;;;;;;13.56;100.00;98419.00;4340116;33;20037;-72
2022/05/27 08:01:19;;;;;;;3.53;2.95;;;;;;;13.60;100.00;98448.97;4341356;33;20082;-71
2022/05/27 08:15:50;;;;;;;8.57;3.97;;;;;;;14.08;100.00;98437.44;4474990;31;20176;-74
2022/05/27 08:18:17;;;;;;;5.20;3.10;;;;;;;14.08;100.00;98437.44;4470162;32;20049;-73
2022/05/27 08:20:43;;;;;;;4.28;3.87;;;;;;;13.84;100.00;98443.63;4469430;32;20049;-73
2022/05/27 08:23:09;;;;;;;4.15;2.95;;;;;;;13.90;100.00;98430.84;4470214;32;20320;-73
2022/05/27 08:25:37;;;;;;;4.18;3.83;;;;;;;13.77;100.00;98445.84;4461476;32;20049;-73
2022/05/27 08:28:05;;;;;;;6.43;4.18;;;;;;;13.84;100.00;98421.16;4458553;32;20049;-74
2022/05/27 08:30:35;;;;;;;6.60;4.43;;;;;;;13.92;100.00;98424.03;4458757;32;20045;-73
2022/05/27 08:33:02;;;;;;;4.15;3.65;;;;;;;14.08;100.00;98462.59;4462757;32;20106;-73
2022/05/27 08:38:26;;;;;;;6.90;3.85;;;;;;;13.90;100.00;98422.72;4474466;32;20085;-73
2022/05/27 08:41:16;;;;;;;;;;;;;;;14.20;100.00;98458.69;4462430;32;20072;-73
2022/05/27 08:43:46;;;;;;;6.37;3.55;;;;;;;14.03;100.00;98470.75;4448732;32;20389;-73
2022/05/27 08:46:22;;;;;;;4.15;3.75;;;;;;;13.93;100.00;98470.88;4458242;32;20056;-73
2022/05/27 08:48:56;;;;;;;3.78;3.45;;;;;;;13.86;100.00;98438.72;4459657;32;20059;-73
2022/05/27 08:51:30;;;;;;;4.60;2.80;;;;;;;13.81;100.00;98473.94;4456575;32;20041;-72
2022/05/27 08:54:03;;;;;;;3.90;3.40;;;;;;;13.84;100.00;98478.00;4459842;32;20038;-72
2022/05/27 08:59:39;;;;;;;4.10;3.15;;;;;;;13.78;100.00;98437.44;4458063;32;20053;-73
2022/05/27 09:02:16;;;;;;;3.85;2.92;;;;;;;14.01;100.00;98456.72;4458355;32;20060;-73
2022/05/27 09:04:48;;;;;;;2.95;2.65;;;;;;;13.93;100.00;98470.88;4456487;32;20426;-73
2022/05/27 09:07:33;;;;;;;;;;;;;;;14.02;100.00;98479.97;4457685;32;20037;-73
2022/05/27 09:10:04;;;;;;;2.80;2.60;;;;;;;14.16;100.00;98470.06;4462992;32;20359;-72
2022/05/27 09:12:46;;;;;;;4.30;3.22;;;;;;;13.97;100.00;98471.91;4470135;32;20055;-73
2022/05/27 09:15:17;;;;;;;7.35;2.95;;;;;;;13.84;100.00;98438.19;4469602;32;20067;-73
2022/05/27 09:17:51;;;;;;;8.13;3.25;;;;;;;14.07;100.00;98471.00;4463876;32;20037;-73
2022/05/27 09:20:30;;;;;;;3.08;2.78;;;;;;;13.91;100.00;98462.22;4461712;32;20029;-73
2022/05/27 09:23:20;;;;;;;4.82;3.58;;;;;;;13.84;100.00;98467.16;4462760;32;20037;-72
2022/05/27 09:26:05;;;;;;;3.33;3.03;;;;;;;14.05;100.00;98446.91;4462539;32;20042;-73
2022/05/27 09:28:45;;;;;;;3.85;3.20;;;;;;;14.11;100.00;98462.00;4462444;32;20397;-74
2022/05/27 09:31:18;;;;;;;6.85;3.33;;;;;;;14.18;100.00;98450.84;4447287;32;20067;-73
2022/05/27 09:33:46;;;;;;;3.50;3.20;;;;;;;13.93;100.00;98457.34;4448303;32;20423;-73
2022/05/27 09:36:32;;;;;;;3.60;3.30;;;;;;;13.98;100.00;98446.47;4446940;32;20045;-72
2022/05/27 09:39:01;;;;;;;3.87;3.37;;;;;;;14.02;100.00;98423.13;4451356;32;20426;-73
2022/05/27 09:41:34;;;;;;;4.95;3.30;;;;;;;14.26;100.00;98469.16;4454700;32;20042;-72
2022/05/27 09:44:06;;;;;;;6.78;3.83;;;;;;;14.07;100.00;98439.34;4454294;32;20073;-73
2022/05/27 09:46:33;;;;;;;3.45;3.22;;;;;;;13.93;100.00;98427.56;4454920;32;20038;-73
2022/05/27 09:48:59;;;;;;;4.68;3.62;;;;;;;13.92;100.00;98420.53;4451331;32;20034;-73
2022/05/27 09:51:29;;;;;;;9.75;4.50;;;;;;;13.88;100.00;98441.13;4453903;32;20050;-72
2022/05/27 09:54:27;;;;;;;5.18;3.47;;;;;;;14.20;100.00;98464.09;4456128;32;20075;-72
2022/05/27 09:57:02;;;;;;;7.50;3.95;;;;;;;14.12;100.00;98474.47;4454214;32;20067;-73
2022/05/27 09:59:39;;;;;;;6.25;3.30;;;;;;;14.02;100.00;98428.53;4454154;32;20067;-73
2022/05/27 10:02:11;;;;;;;4.43;3.70;;;;;;;14.06;100.00;98458.56;4459283;32;20063;-72
2022/05/27 10:04:50;;;;;;;3.87;3.03;;;;;;;13.98;100.00;98431.03;4456077;32;20353;-71
2022/05/27 10:07:33;;;;;;;9.70;3.15;;;;;;;14.34;100.00;98462.31;4455436;32;20102;-71
2022/05/27 10:10:25;;;;;;;5.20;3.00;;;;;;;14.18;100.00;98472.50;4454606;32;20184;-71
2022/05/27 10:12:52;;;;;;;3.90;3.50;;;;;;;14.08;100.00;98462.59;4456010;32;20103;-72
2022/05/27 10:15:30;;;;;;;4.15;3.25;;;;;;;13.81;100.00;98436.84;4450327;32;20038;-73
2022/05/27 10:18:16;;;;;;;6.30;2.67;;;;;;;13.96;100.00;98478.41;4454464;32;20059;-73
2022/05/27 10:20:50;;;;;;;3.53;2.65;;;;;;;13.71;100.00;98493.78;4457606;32;20396;-74
2022/05/27 10:23:26;;;;;;;5.40;2.15;;;;;;;13.44;100.00;98518.59;4461738;32;20056;-73
2022/05/27 10:25:52;;;;;;;1.90;1.30;;;;;;;13.37;100.00;98521.63;4463244;32;20106;-73
2022/05/27 10:28:29;;;;;;;1.27;1.17;;;;;;;12.80;100.00;98482.47;4460630;32;20042;-72
2022/05/27 10:31:00;;;;;;;1.67;1.37;;;;;;;12.87;100.00;98501.88;4460489;32;20041;-72
2022/05/27 10:33:41;;;;;;;8.13;1.65;;;;;;;12.72;100.00;98487.34;4463211;32;20041;-72
2022/05/27 10:36:47;;;;;;;2.22;1.55;;;;;;;12.62;100.00;98465.78;4461431;32;20055;-73
2022/05/27 10:39:26;;;;;;;4.18;1.25;;;;;;;12.34;100.00;98438.34;4463060;32;20456;-73
2022/05/27 10:42:08;;;;;;;2.80;1.10;;;;;;;12.47;100.00;98457.75;4460434;32;20029;-73
2022/05/27 10:44:53;;;;;;;0.98;0.85;;;;;;;12.22;100.00;98427.06;4462860;32;20355;-73
2022/05/27 10:47:52;;;;;;;1.95;1.40;;;;;;;12.57;100.00;98438.78;4460221;32;20057;-73
2022/05/27 10:50:32;;;;;;;2.10;1.92;;;;;;;12.22;100.00;98423.53;4454043;32;20403;-73
2022/05/27 10:53:05;;;;;;;1.65;1.55;;;;;;;12.34;100.00;98413.25;4445730;32;20072;-72
2022/05/27 10:55:48;;;;;;;1.77;1.30;;;;;;;12.30;100.00;98415.69;4447289;32;20055;-72
2022/05/27 11:02:05;;;;;;;2.65;1.12;;;;;;;12.52;100.00;98449.62;4446334;32;20366;-74
2022/05/27 11:04:34;;;;;;;2.25;1.27;;;;;;;12.53;100.00;98437.72;4446811;32;20071;-73
2022/05/27 11:07:36;;;;;;;0.90;0.90;;;;;;;12.41;100.00;98453.44;4442658;32;20042;-74
2022/05/27 11:10:18;;;;;;;;;;;;;;;12.08;100.00;98455.72;4447263;32;20060;-72
2022/05/27 11:16:07;;;;;;;1.77;1.40;;;;;;;11.68;100.00;98417.72;4445601;32;20046;-72
2022/05/27 11:19:08;;;;;;;1.35;1.25;;;;;;;11.61;100.00;98399.09;4445535;32;20071;-72
2022/05/27 11:22:12;;;;;;;1.87;1.42;;;;;;;11.89;100.00;98404.19;4444803;32;20038;-71
2022/05/27 11:25:30;;;;;;;4.45;1.15;;;;;;;11.81;100.00;98419.03;4444926;32;20063;-71
2022/05/27 11:28:26;;;;;;;2.50;1.25;;;;;;;11.72;100.00;98413.38;4412472;32;20079;-72
2022/05/27 11:31:14;;;;;;;1.77;1.30;;;;;;;11.95;100.00;98393.13;4389671;32;20464;-73
2022/05/27 11:34:06;;;;;;;2.95;1.00;;;;;;;11.86;100.00;98410.94;4444672;32;20034;-73
2022/05/27 11:37:07;;;;;;;2.72;1.50;;;;;;;12.01;100.00;98393.91;4443358;32;20046;-73
2022/05/27 11:39:55;;;;;;;2.33;1.27;;;;;;;12.23;100.00;98407.06;4444945;32;20787;-73
2022/05/27 11:42:55;;;;;;;1.80;1.33;;;;;;;11.78;100.00;98368.34;4445204;32;20078;-72
2022/05/27 11:45:28;;;;;;;3.53;1.23;;;;;;;12.06;100.00;98399.31;4446215;32;20103;-73
2022/05/27 11:48:28;;;;;;;1.10;1.10;;;;;;;11.98;100.00;98408.78;4446621;32;20029;-73
2022/05/27 11:51:39;;;;;;;0.80;0.80;;;;;;;12.23;100.00;98407.06;4445964;32;20038;-73
2022/05/27 11:54:33;;;;;;;1.00;1.00;;;;;;;12.22;100.00;98402.78;4397873;32;20045;-72
2022/05/27 11:57:19;;;;;;;1.15;0.98;;;;;;;12.12;100.00;98408.19;4444993;32;20042;-74
2022/05/27 12:00:05;;;;;;;0.95;0.95;;;;;;;12.08;100.00;98370.16;4444812;32;20030;-73
2022/05/27 12:02:45;;;;;;;;;;;;;;;12.23;100.00;98420.56;4443561;32;20068;-72
2022/05/27 12:05:17;;;;;;;7.47;1.17;;;;;;;12.40;100.00;98400.50;4444954;32;19941;-72
2022/05/27 12:08:01;;;;;;;4.37;1.27;;;;;;;12.35;100.00;98407.56;4446122;32;20157;-72
2022/05/27 12:10:37;;;;;;;0.90;0.90;;;;;;;12.33;100.00;98406.22;4445170;32;20076;-72
2022/05/27 12:13:46;;;;;;;1.25;1.10;;;;;;;12.30;100.00;98398.66;4445117;32;20042;-72
2022/05/27 12:16:18;;;;;;;0.82;0.82;;;;;;;12.58;100.00;98394.50;4428369;32;20058;-71
2022/05/27 12:18:48;;;;;;;0.80;0.80;;;;;;;12.43;100.00;98418.88;4445045;32;20063;-71
2022/05/27 12:21:25;;;;;;;1.20;1.00;;;;;;;12.41;100.00;98410.25;4442731;32;20087;-73
2022/05/27 12:24:01;;;;;;;2.00;0.80;;;;;;;12.64;100.00;98388.00;4445759;32;20060;-71
2022/05/27 12:26:33;;;;;;;0.80;0.80;;;;;;;12.74;100.00;98395.22;4446049;32;20370;-71
2022/05/27 12:29:05;;;;;;;0.95;0.95;;;;;;;12.68;100.00;98391.75;4443483;32;20059;-73
2022/05/27 12:31:33;;;;;;;0.93;0.93;;;;;;;12.61;100.00;98393.94;4445383;32;20054;-73
2022/05/27 12:34:28;;;;;;;1.00;1.00;;;;;;;12.59;100.00;98382.63;4444773;32;20326;-72